createdAt,value
2024-04-14T00:02:05.501Z,10.30
2024-04-14T00:04:32.250Z,10.80
2024-04-14T00:06:59.100Z,11.23
2024-04-14T00:09:26.011Z,11.13
2024-04-14T00:11:52.609Z,10.80
2024-04-14T00:14:20.358Z,11.53
2024-04-14T00:16:46.940Z,10.53
2024-04-14T00:19:13.698Z,9.83
2024-04-14T00:21:40.562Z,9.30
2024-04-14T00:24:07.467Z,8.90
2024-04-14T00:26:35.343Z,10.60
2024-04-14T00:29:01.886Z,10.57
2024-04-14T00:31:32.688Z,9.47
2024-04-14T00:33:59.646Z,10.27
2024-04-14T00:36:26.212Z,12.33
2024-04-14T00:38:52.753Z,11.63
2024-04-14T00:41:19.267Z,10.03
2024-04-14T00:43:45.788Z,9.33
2024-04-14T00:46:13.462Z,9.73
2024-04-14T00:48:40.797Z,10.00
2024-04-14T00:51:08.686Z,9.93
2024-04-14T00:53:36.100Z,9.63
2024-04-14T00:56:03.482Z,10.67
2024-04-14T00:58:30.200Z,10.30
2024-04-14T01:00:57.536Z,10.27
2024-04-14T01:03:24.215Z,10.17
2024-04-14T01:05:52.277Z,11.50
2024-04-14T01:08:19.023Z,10.77
2024-04-14T01:10:45.666Z,11.63
2024-04-14T01:13:12.337Z,11.10
2024-04-14T01:15:39.036Z,10.87
2024-04-14T01:18:09.271Z,12.90
2024-04-14T01:20:36.291Z,12.30
2024-04-14T01:23:03.184Z,11.10
2024-04-14T01:25:29.707Z,11.57
2024-04-14T01:27:57.587Z,12.50
2024-04-14T01:30:25.139Z,12.60
2024-04-14T01:32:51.812Z,11.60
2024-04-14T01:35:18.741Z,11.33
2024-04-14T01:37:45.289Z,10.80
2024-04-14T01:40:13.206Z,12.23
2024-04-14T01:42:41.669Z,12.53
2024-04-14T01:45:11.263Z,13.00
2024-04-14T01:47:42.269Z,12.67
2024-04-14T01:50:08.987Z,13.00
2024-04-14T01:52:35.603Z,11.30
2024-04-14T01:55:02.270Z,12.50
2024-04-14T01:57:28.865Z,14.90
2024-04-14T01:59:55.513Z,12.57
2024-04-14T02:02:25.065Z,12.20
2024-04-14T02:04:53.675Z,14.27
2024-04-14T02:07:22.389Z,13.53
2024-04-14T02:09:51.313Z,12.53
2024-04-14T02:12:18.069Z,12.57
2024-04-14T02:14:44.596Z,13.27
2024-04-14T02:17:11.183Z,12.57
2024-04-14T02:19:38.881Z,12.90
2024-04-14T02:22:06.548Z,12.57
2024-04-14T02:24:33.796Z,12.63
2024-04-14T02:27:01.900Z,15.77
2024-04-14T02:29:28.425Z,15.13
2024-04-14T02:31:54.976Z,13.83
2024-04-14T02:34:22.554Z,13.00
2024-04-14T02:36:49.399Z,12.63
2024-04-14T02:39:16.074Z,14.60
2024-04-14T02:41:42.655Z,12.37
2024-04-14T02:44:10.700Z,14.63
2024-04-14T02:46:37.396Z,13.07
2024-04-14T02:49:04.423Z,13.90
2024-04-14T02:51:31.456Z,14.63
2024-04-14T02:53:57.991Z,14.13
2024-04-14T02:56:24.583Z,15.07
2024-04-14T02:58:53.407Z,14.30
2024-04-14T03:01:21.026Z,13.70
2024-04-14T03:03:49.472Z,12.77
2024-04-14T03:06:16.563Z,13.63
2024-04-14T03:08:43.249Z,13.60
2024-04-14T03:11:10.140Z,14.20
2024-04-14T03:13:36.844Z,13.17
2024-04-14T03:16:05.356Z,14.27
2024-04-14T03:18:31.981Z,12.87
2024-04-14T03:21:00.139Z,13.60
2024-04-14T03:23:27.763Z,13.60
2024-04-14T03:25:54.968Z,14.13
2024-04-14T03:28:28.477Z,14.60
2024-04-14T03:31:02.684Z,15.20
2024-04-14T03:33:30.480Z,13.97
2024-04-14T03:36:05.219Z,13.30
2024-04-14T03:38:33.285Z,14.10
2024-04-14T03:40:59.946Z,15.40
2024-04-14T03:43:26.634Z,13.27
2024-04-14T03:45:53.474Z,12.03
2024-04-14T03:48:20.954Z,14.13
2024-04-14T03:50:47.698Z,14.47
2024-04-14T03:53:14.266Z,16.57
2024-04-14T03:55:40.879Z,14.23
2024-04-14T03:58:07.475Z,14.60
2024-04-14T04:00:34.154Z,15.27
2024-04-14T04:03:00.817Z,14.13
2024-04-14T04:05:27.389Z,13.43
2024-04-14T04:07:53.978Z,14.63
2024-04-14T04:10:20.507Z,15.50
2024-04-14T04:12:48.600Z,15.10
2024-04-14T04:15:15.214Z,16.70
2024-04-14T04:17:41.975Z,13.83
2024-04-14T04:20:09.342Z,13.70
2024-04-14T04:22:36.295Z,15.57
2024-04-14T04:25:02.963Z,14.97
2024-04-14T04:27:29.694Z,14.97
2024-04-14T04:29:56.251Z,14.67
2024-04-14T04:32:24.781Z,17.90
2024-04-14T04:34:52.689Z,15.60
2024-04-14T04:37:20.684Z,15.17
2024-04-14T04:39:47.933Z,16.00
2024-04-14T04:42:14.561Z,15.90
2024-04-14T04:44:42.720Z,18.17
2024-04-14T04:47:09.600Z,14.80
2024-04-14T04:49:36.337Z,14.33
2024-04-14T04:52:03.076Z,15.10
2024-04-14T04:54:29.719Z,15.20
2024-04-14T04:56:56.249Z,16.40
2024-04-14T04:59:23.655Z,16.73
2024-04-14T05:01:51.741Z,14.47
2024-04-14T05:04:20.306Z,17.17
2024-04-14T05:06:48.000Z,14.77
2024-04-14T05:09:14.930Z,14.80
2024-04-14T05:11:42.806Z,14.53
2024-04-14T05:14:10.175Z,13.07
2024-04-14T05:16:37.813Z,13.93
2024-04-14T05:19:04.795Z,13.97
2024-04-14T05:21:34.349Z,14.83
2024-04-14T05:24:01.024Z,15.33
2024-04-14T05:26:28.178Z,16.17
2024-04-14T05:28:54.784Z,17.07
2024-04-14T05:31:21.379Z,16.37
2024-04-14T05:33:52.845Z,15.00
2024-04-14T05:36:19.419Z,15.83
2024-04-14T05:38:49.403Z,17.30
2024-04-14T05:41:15.959Z,15.57
2024-04-14T05:43:42.961Z,16.87
2024-04-14T05:46:10.176Z,15.57
2024-04-14T05:48:37.971Z,15.40
2024-04-14T05:51:04.911Z,19.17
2024-04-14T05:53:32.017Z,15.83
2024-04-14T05:55:59.748Z,16.53
2024-04-14T05:58:26.863Z,16.83
2024-04-14T06:00:55.252Z,14.47
2024-04-14T06:03:23.325Z,17.37
2024-04-14T06:05:51.073Z,15.77
2024-04-14T06:08:18.588Z,15.63
2024-04-14T06:10:46.370Z,16.40
2024-04-14T06:13:13.329Z,16.13
2024-04-14T06:15:40.977Z,16.30
2024-04-14T06:18:08.217Z,13.87
2024-04-14T06:20:36.169Z,15.20
2024-04-14T06:23:02.822Z,16.20
2024-04-14T06:25:29.438Z,15.40
2024-04-14T06:27:56.336Z,15.07
2024-04-14T06:30:22.967Z,13.63
2024-04-14T06:32:50.989Z,14.40
2024-04-14T06:35:18.437Z,13.63
2024-04-14T06:37:45.095Z,15.47
2024-04-14T06:40:14.622Z,13.63
2024-04-14T06:42:41.294Z,13.87
2024-04-14T06:45:08.394Z,13.37
2024-04-14T06:47:35.512Z,14.40
2024-04-14T06:50:02.662Z,13.63
2024-04-14T06:52:30.132Z,13.37
2024-04-14T06:54:56.723Z,12.40
2024-04-14T06:57:23.525Z,12.50
2024-04-14T06:59:50.097Z,11.77
2024-04-14T07:02:16.703Z,11.77
2024-04-14T07:04:43.519Z,13.60
2024-04-14T07:07:10.697Z,13.10
2024-04-14T07:09:37.316Z,11.70
2024-04-14T07:12:04.299Z,12.40
2024-04-14T07:14:31.007Z,12.82
2024-04-14T07:16:57.803Z,12.48
2024-04-14T07:19:24.663Z,12.82
2024-04-14T07:21:51.597Z,12.13
2024-04-14T07:24:18.589Z,11.75
2024-04-14T07:26:45.442Z,11.32
2024-04-14T07:29:12.453Z,12.38
2024-04-14T07:31:39.875Z,10.95
2024-04-14T07:34:06.472Z,11.82
2024-04-14T07:36:33.159Z,10.82
2024-04-14T07:39:00.000Z,10.85
2024-04-14T07:41:27.579Z,11.70
2024-04-14T07:43:54.857Z,10.85
2024-04-14T07:46:23.702Z,9.80
2024-04-14T07:48:51.566Z,9.77
2024-04-14T07:51:18.288Z,10.80
2024-04-14T07:53:44.848Z,9.70
2024-04-14T07:56:11.382Z,8.75
2024-04-14T07:58:39.408Z,9.75
2024-04-14T08:01:07.495Z,10.23
2024-04-14T08:03:46.817Z,8.77
2024-04-14T08:06:17.753Z,9.30
2024-04-14T08:08:44.657Z,9.75
2024-04-14T08:11:13.050Z,10.10
2024-04-14T08:13:41.947Z,9.30
2024-04-14T08:16:09.698Z,9.50
2024-04-14T08:18:36.485Z,9.45
2024-04-14T08:21:03.816Z,8.13
2024-04-14T08:23:30.402Z,7.40
2024-04-14T08:25:57.181Z,7.65
2024-04-14T08:28:24.059Z,7.20
2024-04-14T08:30:50.737Z,6.10
2024-04-14T08:33:20.082Z,5.25
2024-04-14T08:35:46.688Z,5.10
2024-04-14T08:38:14.303Z,6.20
2024-04-14T08:40:41.993Z,6.05
2024-04-14T08:43:08.664Z,6.47
2024-04-14T08:45:36.904Z,6.53
2024-04-14T08:48:03.979Z,6.57
2024-04-14T08:50:31.550Z,5.47
2024-04-14T08:53:00.420Z,5.57
2024-04-14T08:55:27.089Z,6.03
2024-04-14T08:57:55.729Z,5.55
2024-04-14T09:00:22.893Z,4.13
2024-04-14T09:02:50.854Z,4.78
2024-04-14T09:05:17.539Z,6.93
2024-04-14T09:07:45.283Z,6.95
2024-04-14T09:10:11.878Z,6.80
2024-04-14T09:12:38.468Z,6.82
2024-04-14T09:15:06.895Z,6.45
2024-04-14T09:17:34.041Z,5.97
2024-04-14T09:20:00.648Z,6.22
2024-04-14T09:22:27.230Z,6.60
2024-04-14T09:24:53.858Z,2.83
2024-04-14T09:27:22.622Z,2.80
2024-04-14T09:29:50.353Z,2.60
2024-04-14T09:32:16.942Z,2.40
2024-04-14T09:34:44.175Z,2.60
2024-04-14T09:37:13.979Z,2.78
2024-04-14T09:39:42.496Z,2.67
2024-04-14T09:42:09.368Z,2.78
2024-04-14T09:44:37.529Z,2.55
2024-04-14T09:47:04.661Z,2.78
2024-04-14T09:49:34.825Z,2.55
2024-04-14T09:52:02.138Z,3.03
2024-04-14T09:54:31.218Z,2.72
2024-04-14T09:56:57.886Z,2.72
2024-04-14T09:59:24.446Z,2.53
2024-04-14T10:01:51.657Z,2.63
2024-04-14T10:04:19.769Z,3.38
2024-04-14T10:06:47.195Z,3.10
2024-04-14T10:09:13.833Z,2.50
2024-04-14T10:11:43.632Z,2.90
2024-04-14T10:14:13.169Z,3.05
2024-04-14T10:16:39.753Z,2.90
2024-04-14T10:19:06.538Z,2.90
2024-04-14T10:21:34.755Z,2.95
2024-04-14T10:24:03.551Z,2.70
2024-04-14T10:26:32.965Z,2.72
2024-04-14T10:29:00.613Z,2.90
2024-04-14T10:31:32.392Z,2.92
2024-04-14T10:34:09.978Z,2.97
2024-04-14T10:36:38.623Z,2.60
2024-04-14T10:39:06.395Z,2.80
2024-04-14T10:41:33.494Z,2.85
2024-04-14T10:44:00.063Z,2.40
2024-04-14T10:46:27.741Z,2.72
2024-04-14T10:48:56.262Z,2.80
2024-04-14T10:51:23.839Z,3.00
2024-04-14T10:56:34.087Z,2.72
2024-04-14T10:59:03.859Z,2.60
2024-04-14T11:01:32.095Z,3.00
2024-04-14T11:04:00.244Z,3.05
2024-04-14T11:06:26.951Z,2.42
2024-04-14T11:08:53.751Z,2.80
2024-04-14T11:11:20.579Z,2.78
2024-04-14T11:13:47.270Z,2.45
2024-04-14T11:16:14.251Z,2.63
2024-04-14T11:18:41.735Z,2.80
2024-04-14T11:21:09.329Z,2.80
2024-04-14T11:23:38.585Z,2.90
2024-04-14T11:26:05.773Z,3.08
2024-04-14T11:28:32.516Z,2.72
2024-04-14T11:31:00.318Z,3.30
2024-04-14T11:33:27.177Z,3.05
2024-04-14T11:35:58.106Z,2.83
2024-04-14T11:38:27.031Z,2.90
2024-04-14T11:40:56.220Z,2.85
2024-04-14T11:43:23.369Z,2.67
2024-04-14T11:45:53.090Z,2.80
2024-04-14T11:48:25.955Z,2.88
2024-04-14T11:50:53.535Z,2.90
2024-04-14T11:53:20.302Z,3.00
2024-04-14T11:55:48.012Z,2.83
2024-04-14T11:58:20.678Z,2.72
2024-04-14T12:00:47.620Z,2.92
2024-04-14T12:03:14.169Z,2.90
2024-04-14T12:05:40.795Z,2.90
2024-04-14T12:08:08.813Z,2.80
2024-04-14T12:10:41.232Z,2.72
2024-04-14T12:13:09.064Z,2.75
2024-04-14T12:15:38.125Z,2.72
2024-04-14T12:18:07.041Z,2.70
2024-04-14T12:20:40.005Z,2.47
2024-04-14T12:23:06.634Z,2.65
2024-04-14T12:25:33.655Z,2.60
2024-04-14T12:28:00.258Z,2.75
2024-04-14T12:30:35.618Z,2.80
2024-04-14T12:33:06.975Z,2.78
2024-04-14T12:35:33.587Z,2.35
2024-04-14T12:38:00.121Z,2.78
2024-04-14T12:40:26.810Z,2.88
2024-04-14T12:42:54.442Z,3.10
2024-04-14T12:45:22.100Z,2.70
2024-04-14T12:47:49.248Z,2.70
2024-04-14T12:50:21.269Z,2.72
2024-04-14T12:52:52.673Z,2.90
2024-04-14T12:55:19.258Z,2.63
2024-04-14T12:57:45.840Z,2.67
2024-04-14T13:00:13.274Z,2.55
2024-04-14T13:02:40.262Z,2.47
2024-04-14T13:05:07.470Z,2.47
2024-04-14T13:07:34.059Z,2.63
2024-04-14T13:10:00.870Z,2.75
2024-04-14T13:12:27.453Z,2.80
2024-04-14T13:14:54.806Z,2.70
2024-04-14T13:17:21.418Z,2.78
2024-04-14T13:19:48.225Z,3.00
2024-04-14T13:22:14.837Z,2.72
2024-04-14T13:24:41.411Z,2.47
2024-04-14T13:27:08.032Z,2.55
2024-04-14T13:29:34.883Z,2.65
2024-04-14T13:32:01.541Z,2.80
2024-04-14T13:34:28.167Z,2.55
2024-04-14T13:36:56.940Z,2.95
2024-04-14T13:39:23.588Z,2.40
2024-04-14T13:41:50.197Z,2.90
2024-04-14T13:44:16.754Z,2.70
2024-04-14T13:46:43.728Z,2.67
2024-04-14T13:49:10.695Z,2.40
2024-04-14T13:51:37.357Z,2.50
2024-04-14T13:54:05.615Z,2.50
2024-04-14T13:56:33.211Z,2.40
2024-04-14T13:58:59.786Z,2.70
2024-04-14T14:01:26.543Z,2.90
2024-04-14T14:03:53.493Z,2.30
2024-04-14T14:06:21.648Z,2.55
2024-04-14T14:08:48.519Z,2.50
2024-04-14T14:11:16.070Z,2.40
2024-04-14T14:13:42.940Z,2.65
2024-04-14T14:16:09.595Z,2.40
2024-04-14T14:18:36.345Z,2.30
2024-04-14T14:21:03.248Z,2.40
2024-04-14T14:23:29.857Z,2.30
2024-04-14T14:25:57.108Z,2.50
2024-04-14T14:28:23.687Z,2.35
2024-04-14T14:30:50.365Z,2.15
2024-04-14T14:33:35.940Z,2.58
2024-04-14T14:36:21.322Z,2.20
2024-04-14T14:38:49.205Z,2.40
2024-04-14T14:41:16.022Z,2.20
2024-04-14T14:43:44.231Z,2.42
2024-04-14T14:46:10.813Z,2.17
2024-04-14T14:48:37.522Z,2.20
2024-04-14T14:51:11.145Z,2.13
2024-04-14T14:53:37.908Z,2.28
2024-04-14T14:56:05.176Z,2.40
2024-04-14T14:58:32.404Z,2.30
2024-04-14T15:00:59.818Z,2.20
2024-04-14T15:03:27.055Z,2.50
2024-04-14T15:05:53.880Z,2.30
2024-04-14T15:08:22.744Z,2.15
2024-04-14T15:10:54.955Z,2.30
2024-04-14T15:13:23.833Z,2.30
2024-04-14T15:15:59.712Z,2.30
2024-04-14T15:18:31.793Z,2.30
2024-04-14T15:20:58.433Z,2.30
2024-04-14T15:23:26.911Z,2.15
2024-04-14T15:25:53.523Z,2.10
2024-04-14T15:28:25.594Z,2.20
2024-04-14T15:30:57.325Z,2.47
2024-04-14T15:33:23.981Z,2.55
2024-04-14T15:35:50.975Z,2.45
2024-04-14T15:38:17.747Z,2.20
2024-04-14T15:40:48.155Z,2.30
2024-04-14T15:43:14.961Z,2.58
2024-04-14T15:45:41.732Z,2.40
2024-04-14T15:48:09.775Z,2.50
2024-04-14T15:50:36.818Z,2.22
2024-04-14T15:53:03.686Z,2.85
2024-04-14T15:55:30.549Z,2.60
2024-04-14T15:57:57.191Z,2.40
2024-04-14T16:00:23.802Z,2.30
2024-04-14T16:02:50.699Z,2.10
2024-04-14T16:05:18.893Z,2.50
2024-04-14T16:07:46.098Z,3.17
2024-04-14T16:10:12.991Z,3.10
2024-04-14T16:12:40.258Z,2.70
2024-04-14T16:15:07.350Z,2.30
2024-04-14T16:17:34.152Z,2.67
2024-04-14T16:20:00.818Z,2.80
2024-04-14T16:22:27.968Z,2.80
2024-04-14T16:24:54.582Z,2.40
2024-04-14T16:27:22.774Z,2.38
2024-04-14T16:29:51.181Z,2.67
2024-04-14T16:32:17.823Z,2.70
2024-04-14T16:34:44.381Z,2.70
2024-04-14T16:37:10.970Z,2.40
2024-04-14T16:39:38.799Z,2.65
2024-04-14T16:42:05.516Z,2.47
2024-04-14T16:44:33.322Z,2.70
2024-04-14T16:46:59.958Z,2.85
2024-04-14T16:49:26.602Z,2.47
2024-04-14T16:51:53.516Z,2.50
2024-04-14T16:54:20.096Z,2.50
2024-04-14T16:56:46.741Z,2.30
2024-04-14T16:59:13.250Z,2.55
2024-04-14T17:01:40.254Z,2.38
2024-04-14T17:04:07.030Z,2.35
2024-04-14T17:06:33.801Z,2.50
2024-04-14T17:09:00.499Z,2.50
2024-04-14T17:11:27.212Z,2.60
2024-04-14T17:13:53.856Z,2.60
2024-04-14T17:16:20.443Z,2.40
2024-04-14T17:18:47.087Z,2.63
2024-04-14T17:21:13.695Z,2.90
2024-04-14T17:23:40.516Z,2.60
2024-04-14T17:26:07.097Z,2.75
2024-04-14T17:28:33.663Z,2.40
2024-04-14T17:31:02.617Z,2.40
2024-04-14T17:33:29.317Z,2.33
2024-04-14T17:35:55.962Z,2.33
2024-04-14T17:38:22.644Z,2.70
2024-04-14T17:40:49.537Z,2.60
2024-04-14T17:43:16.619Z,2.60
2024-04-14T17:45:43.440Z,2.90
2024-04-14T17:48:10.510Z,2.70
2024-04-14T17:50:37.762Z,2.70
2024-04-14T17:53:05.122Z,2.75
2024-04-14T17:55:32.346Z,2.60
2024-04-14T17:58:01.333Z,2.83
2024-04-14T18:00:28.251Z,2.70
2024-04-14T18:02:54.802Z,2.78
2024-04-14T18:05:21.572Z,2.60
2024-04-14T18:07:48.438Z,2.67
2024-04-14T18:10:15.387Z,2.40
2024-04-14T18:12:44.638Z,2.50
2024-04-14T18:15:11.340Z,2.70
2024-04-14T18:17:37.945Z,2.55
2024-04-14T18:20:04.985Z,2.70
2024-04-14T18:22:32.796Z,2.85
2024-04-14T18:24:59.446Z,3.33
2024-04-14T18:27:26.405Z,3.10
2024-04-14T18:29:55.544Z,3.13
2024-04-14T18:32:22.142Z,3.10
2024-04-14T18:34:50.922Z,3.00
2024-04-14T18:37:17.522Z,2.95
2024-04-14T18:39:44.446Z,2.80
2024-04-14T18:42:12.287Z,2.78
2024-04-14T18:44:40.222Z,2.50
2024-04-14T18:47:07.965Z,2.70
2024-04-14T18:49:34.488Z,2.60
2024-04-14T18:52:01.109Z,2.70
2024-04-14T18:54:27.709Z,2.70
2024-04-14T18:56:54.305Z,2.70
2024-04-14T18:59:21.158Z,2.70
2024-04-14T19:01:47.881Z,3.42
2024-04-14T19:04:15.064Z,3.75
2024-04-14T19:06:42.268Z,3.25
2024-04-14T19:09:09.030Z,3.22
2024-04-14T19:11:35.650Z,3.55
2024-04-14T19:14:05.619Z,3.60
2024-04-14T19:16:34.008Z,3.50
2024-04-14T19:19:01.206Z,3.50
2024-04-14T19:21:28.016Z,3.60
2024-04-14T19:23:57.461Z,3.72
2024-04-14T19:26:25.601Z,3.40
2024-04-14T19:28:53.480Z,3.13
2024-04-14T19:31:21.165Z,3.38
2024-04-14T19:33:47.960Z,3.80
2024-04-14T19:36:14.522Z,3.70
2024-04-14T19:38:41.169Z,3.70
2024-04-14T19:41:10.503Z,3.22
2024-04-14T19:43:38.469Z,3.10
2024-04-14T19:46:05.315Z,3.05
2024-04-14T19:48:31.877Z,3.20
2024-04-14T19:50:58.411Z,2.90
2024-04-14T19:53:26.194Z,3.15
2024-04-14T19:55:53.063Z,2.90
2024-04-14T19:58:19.758Z,2.92
2024-04-14T20:00:46.480Z,2.88
2024-04-14T20:03:13.082Z,2.75
2024-04-14T20:05:40.082Z,3.33
2024-04-14T20:08:07.274Z,3.50
2024-04-14T20:10:34.078Z,3.08
2024-04-14T20:13:07.950Z,3.63
2024-04-14T20:15:34.997Z,3.33
2024-04-14T20:18:01.650Z,3.40
2024-04-14T20:20:29.386Z,3.33
2024-04-14T20:22:56.809Z,3.38
2024-04-14T20:25:23.506Z,3.40
2024-04-14T20:27:51.173Z,4.22
2024-04-14T20:30:17.795Z,4.10
2024-04-14T20:32:44.388Z,4.00
2024-04-14T20:35:11.022Z,3.95
2024-04-14T20:37:38.433Z,3.85
2024-04-14T20:40:05.685Z,4.00
2024-04-14T20:42:32.535Z,3.40
2024-04-14T20:44:59.431Z,4.10
2024-04-14T20:47:26.844Z,3.78
2024-04-14T20:49:54.395Z,4.00
2024-04-14T20:52:21.494Z,4.05
2024-04-14T20:54:49.779Z,3.92
2024-04-14T20:57:16.439Z,3.78
2024-04-14T20:59:43.317Z,4.20
2024-04-14T21:02:10.360Z,3.75
2024-04-14T21:04:45.551Z,3.90
2024-04-14T21:07:16.331Z,4.05
2024-04-14T21:09:43.391Z,3.65
2024-04-14T21:12:10.261Z,3.65
2024-04-14T21:14:38.445Z,4.07
2024-04-14T21:17:05.087Z,3.90
2024-04-14T21:19:31.716Z,4.60
2024-04-14T21:22:00.042Z,4.20
2024-04-14T21:24:26.629Z,3.72
2024-04-14T21:26:53.763Z,3.50
2024-04-14T21:29:21.595Z,3.60
2024-04-14T21:31:48.136Z,3.72
2024-04-14T21:34:14.849Z,4.10
2024-04-14T21:36:41.724Z,3.90
2024-04-14T21:39:09.286Z,5.20
2024-04-14T21:41:35.886Z,4.60
2024-04-14T21:44:02.530Z,4.65
2024-04-14T21:46:29.631Z,4.32
2024-04-14T21:48:56.239Z,4.38
2024-04-14T21:51:23.157Z,4.47
2024-04-14T21:53:49.714Z,4.00
2024-04-14T21:56:18.616Z,4.05
2024-04-14T21:58:45.534Z,4.07
2024-04-14T22:01:16.442Z,4.35
2024-04-14T22:03:46.252Z,5.47
2024-04-14T22:06:13.208Z,4.70
2024-04-14T22:08:39.847Z,4.35
2024-04-14T22:11:06.713Z,4.75
2024-04-14T22:13:36.664Z,4.72
2024-04-14T22:16:03.594Z,4.57
2024-04-14T22:18:32.030Z,4.60
2024-04-14T22:20:59.696Z,4.43
2024-04-14T22:23:26.423Z,4.75
2024-04-14T22:25:53.510Z,5.00
2024-04-14T22:28:20.250Z,4.53
2024-04-14T22:30:47.586Z,4.32
2024-04-14T22:33:14.344Z,4.45
2024-04-14T22:35:42.327Z,4.03
2024-04-14T22:38:09.008Z,4.10
2024-04-14T22:40:35.564Z,3.90
2024-04-14T22:43:02.183Z,4.10
2024-04-14T22:45:28.872Z,3.85
2024-04-14T22:47:56.139Z,3.60
2024-04-14T22:50:22.700Z,4.05
2024-04-14T22:52:49.571Z,4.32
2024-04-14T22:55:17.088Z,3.95
2024-04-14T22:57:43.791Z,3.70
2024-04-14T23:00:11.419Z,3.30
2024-04-14T23:02:38.707Z,3.60
2024-04-14T23:05:05.994Z,3.50
2024-04-14T23:07:32.618Z,3.33
2024-04-14T23:10:00.878Z,3.30
2024-04-14T23:12:27.726Z,3.47
2024-04-14T23:14:54.605Z,3.30
2024-04-14T23:17:21.225Z,3.67
2024-04-14T23:19:49.040Z,3.50
2024-04-14T23:22:16.330Z,3.60
2024-04-14T23:24:42.925Z,3.63
2024-04-14T23:27:09.753Z,3.55
2024-04-14T23:29:36.290Z,3.60
2024-04-14T23:32:02.969Z,3.85
2024-04-14T23:34:29.777Z,3.90
2024-04-14T23:36:57.204Z,3.95
2024-04-14T23:39:23.843Z,4.00
2024-04-14T23:41:50.614Z,3.85
2024-04-14T23:44:17.253Z,4.03
2024-04-14T23:46:43.804Z,4.05
2024-04-14T23:49:10.527Z,4.05
2024-04-14T23:51:37.056Z,4.03
2024-04-14T23:54:03.748Z,3.80
2024-04-14T23:56:30.337Z,4.43
2024-04-14T23:58:56.897Z,4.00
